Time;durP1;ratioP1;P1;durP2;ratioP2;P2;SDS_P1;SDS_P2;PMS_P1;PMS_P2;Temp;Humidity;BMP_temperature;BMP_pressure;BME280_temperature;BME280_humidity;BME280_pressure;Samples;Min_cycle;Max_cycle;Signal;HPM_P1;HPM_P2
2021/10/09 00:02:09;;;;;;;16.95;13.25;;;7.30;99.90;;;;;;4858341;29;20207;-75
2021/10/09 00:04:36;;;;;;;16.98;13.02;;;7.30;99.90;;;;;;4858139;29;20252;-73
2021/10/09 00:07:03;;;;;;;20.15;13.95;;;7.30;99.90;;;;;;4857626;29;20612;-75
2021/10/09 00:09:31;;;;;;;15.85;12.95;;;7.30;99.90;;;;;;4858400;29;20208;-75
2021/10/09 00:11:57;;;;;;;18.40;13.45;;;7.30;99.90;;;;;;4857906;29;20238;-75
2021/10/09 00:14:24;;;;;;;16.00;12.30;;;7.30;99.90;;;;;;4857644;29;20232;-74
2021/10/09 00:16:52;;;;;;;16.65;12.30;;;7.30;99.90;;;;;;4857839;29;20212;-75
2021/10/09 00:19:19;;;;;;;19.15;14.07;;;7.20;99.90;;;;;;4858181;29;20234;-72
2021/10/09 00:21:46;;;;;;;25.60;13.55;;;7.20;99.90;;;;;;4858256;29;20212;-75
2021/10/09 00:24:13;;;;;;;20.02;14.27;;;7.20;99.90;;;;;;4857511;29;20231;-75
2021/10/09 00:26:42;;;;;;;16.60;12.82;;;7.20;99.90;;;;;;4857555;29;20204;-74
2021/10/09 00:29:09;;;;;;;17.27;11.85;;;7.20;99.90;;;;;;4857952;29;20216;-75
2021/10/09 00:31:36;;;;;;;18.15;13.40;;;7.20;99.90;;;;;;4857712;29;20232;-74
2021/10/09 00:34:03;;;;;;;19.60;12.57;;;7.10;99.90;;;;;;4857434;29;20212;-73
2021/10/09 00:36:30;;;;;;;15.27;12.50;;;7.10;99.90;;;;;;4857333;29;20214;-73
2021/10/09 00:38:57;;;;;;;14.98;13.07;;;7.10;99.90;;;;;;4857497;29;20219;-74
2021/10/09 00:41:25;;;;;;;20.52;13.10;;;7.10;99.90;;;;;;4857942;29;20207;-73
2021/10/09 00:43:53;;;;;;;18.83;13.38;;;7.10;99.90;;;;;;4857063;29;20207;-74
2021/10/09 00:46:20;;;;;;;18.42;12.60;;;7.10;99.90;;;;;;4857633;29;20215;-74
2021/10/09 00:48:46;;;;;;;16.30;13.55;;;7.10;99.90;;;;;;4857731;29;20228;-74
2021/10/09 00:51:13;;;;;;;16.60;12.93;;;7.00;99.90;;;;;;4857480;29;20581;-74
2021/10/09 00:53:41;;;;;;;17.10;13.52;;;7.00;99.90;;;;;;4857222;29;20639;-74
2021/10/09 00:56:09;;;;;;;18.17;12.75;;;7.00;99.90;;;;;;4856854;29;20255;-73
2021/10/09 00:58:39;;;;;;;19.10;14.13;;;7.00;99.90;;;;;;4857859;29;20663;-74
2021/10/09 01:01:07;;;;;;;14.07;11.60;;;7.00;99.90;;;;;;4857355;29;20703;-72
2021/10/09 01:03:34;;;;;;;18.50;13.13;;;6.90;99.90;;;;;;4857397;29;20212;-74
2021/10/09 01:06:01;;;;;;;15.80;12.70;;;6.90;99.90;;;;;;4856696;29;20232;-73
2021/10/09 01:08:28;;;;;;;18.25;13.30;;;6.90;99.90;;;;;;4857630;29;20207;-72
2021/10/09 01:10:55;;;;;;;15.65;12.77;;;6.90;99.90;;;;;;4857553;29;20238;-73
2021/10/09 01:13:22;;;;;;;17.30;13.50;;;6.80;99.90;;;;;;4857199;29;20734;-73
2021/10/09 01:15:49;;;;;;;15.82;13.23;;;6.80;99.90;;;;;;4856719;29;20234;-74
2021/10/09 01:18:18;;;;;;;16.17;12.43;;;6.80;99.90;;;;;;4857469;29;20212;-74
2021/10/09 01:20:51;;;;;;;15.68;11.98;;;6.80;99.90;;;;;;4857597;29;20208;-75
2021/10/09 01:23:18;;;;;;;18.48;12.85;;;6.80;99.90;;;;;;4856994;29;20206;-73
2021/10/09 01:25:46;;;;;;;15.85;11.90;;;6.70;99.90;;;;;;4856724;29;20239;-74
2021/10/09 01:28:13;;;;;;;17.23;12.60;;;6.80;99.90;;;;;;4857322;29;20215;-74
2021/10/09 01:30:39;;;;;;;15.73;12.55;;;6.70;99.90;;;;;;4857339;29;20695;-75
2021/10/09 01:33:07;;;;;;;16.23;12.13;;;6.70;99.90;;;;;;4856943;29;20660;-72
2021/10/09 01:35:46;;;;;;;17.58;12.68;;;6.70;99.90;;;;;;4856785;29;20239;-75
2021/10/09 01:38:14;;;;;;;18.65;13.10;;;6.60;99.90;;;;;;4857306;29;20563;-74
2021/10/09 01:40:40;;;;;;;18.83;12.80;;;6.50;99.90;;;;;;4857493;29;20204;-75
2021/10/09 01:43:09;;;;;;;18.48;13.35;;;6.50;99.90;;;;;;4856939;29;20208;-72
2021/10/09 01:45:36;;;;;;;15.18;12.15;;;6.50;99.90;;;;;;4860122;29;20250;-74
2021/10/09 01:48:03;;;;;;;17.35;12.15;;;6.50;99.90;;;;;;4860226;29;20219;-74
2021/10/09 01:50:30;;;;;;;16.35;12.93;;;6.50;99.90;;;;;;4860929;29;20557;-75
2021/10/09 01:52:56;;;;;;;15.88;11.95;;;6.40;99.90;;;;;;4860153;29;20595;-73
2021/10/09 01:55:24;;;;;;;14.23;12.25;;;6.40;99.90;;;;;;4860477;29;20228;-75
2021/10/09 01:57:51;;;;;;;19.50;13.65;;;6.40;99.90;;;;;;4860156;29;20680;-74
2021/10/09 02:00:18;;;;;;;13.70;10.73;;;6.40;99.90;;;;;;4860519;29;20215;-74
2021/10/09 02:02:45;;;;;;;16.35;12.25;;;6.40;99.90;;;;;;4860623;29;20212;-74
2021/10/09 02:05:11;;;;;;;18.08;13.48;;;6.40;99.90;;;;;;4859635;29;20227;-74
2021/10/09 02:07:38;;;;;;;19.35;13.02;;;6.40;99.90;;;;;;4860222;29;20580;-74
2021/10/09 02:10:06;;;;;;;16.38;13.63;;;6.40;99.90;;;;;;4860211;29;20264;-74
2021/10/09 02:12:34;;;;;;;15.57;12.38;;;6.40;99.90;;;;;;4860451;29;20258;-74
2021/10/09 02:15:05;;;;;;;19.58;13.25;;;6.40;99.90;;;;;;4859623;29;20274;-74
2021/10/09 02:25:52;;;;;;;16.05;11.90;;;6.30;99.90;;;;;;4859248;29;20250;-74
2021/10/09 02:28:22;;;;;;;17.63;13.18;;;6.30;99.90;;;;;;4860117;29;20208;-73
2021/10/09 02:30:50;;;;;;;16.75;11.48;;;6.30;99.90;;;;;;4859987;29;20208;-73
2021/10/09 02:33:17;;;;;;;16.13;12.77;;;6.30;99.90;;;;;;4859936;29;20232;-74
2021/10/09 02:35:44;;;;;;;22.30;13.30;;;6.30;99.90;;;;;;4859266;29;20610;-72
2021/10/09 02:38:11;;;;;;;18.08;13.23;;;6.30;99.90;;;;;;4859885;29;20204;-74
2021/10/09 02:40:40;;;;;;;16.58;12.48;;;6.30;99.90;;;;;;4860005;29;20216;-73
2021/10/09 02:43:07;;;;;;;16.70;12.30;;;6.20;99.90;;;;;;4859665;29;20208;-73
2021/10/09 02:45:35;;;;;;;15.80;12.60;;;6.20;99.90;;;;;;4859359;29;20233;-73
2021/10/09 02:48:04;;;;;;;17.02;12.05;;;6.20;99.90;;;;;;4859130;29;20223;-73
2021/10/09 02:50:31;;;;;;;16.65;12.60;;;6.20;99.90;;;;;;4859873;29;20235;-74
2021/10/09 02:52:58;;;;;;;14.25;11.57;;;6.20;99.90;;;;;;4859130;29;20253;-73
2021/10/09 02:55:25;;;;;;;22.10;12.82;;;6.20;99.90;;;;;;4858185;29;20236;-73
2021/10/09 02:57:52;;;;;;;18.50;13.98;;;6.20;99.90;;;;;;4859157;29;20216;-73
2021/10/09 03:00:21;;;;;;;19.10;13.30;;;6.20;99.90;;;;;;4859616;29;20218;-73
2021/10/09 03:02:49;;;;;;;17.05;13.25;;;6.10;99.90;;;;;;4859434;29;20204;-72
2021/10/09 03:05:16;;;;;;;15.70;12.25;;;6.10;99.90;;;;;;4858836;29;20601;-74
2021/10/09 03:07:43;;;;;;;15.55;11.38;;;6.00;99.90;;;;;;4859037;29;20268;-73
2021/10/09 03:10:11;;;;;;;15.40;11.32;;;6.00;99.90;;;;;;4859500;29;20204;-74
2021/10/09 03:12:38;;;;;;;13.63;11.35;;;6.00;99.90;;;;;;4859212;29;20235;-74
2021/10/09 03:15:06;;;;;;;15.80;12.63;;;6.00;99.90;;;;;;4858053;29;20228;-73
2021/10/09 03:17:32;;;;;;;17.10;12.73;;;6.00;99.90;;;;;;4859230;29;20212;-75
2021/10/09 03:20:00;;;;;;;16.27;12.35;;;6.00;99.90;;;;;;4859112;29;20219;-72
2021/10/09 03:22:27;;;;;;;15.80;12.45;;;5.90;99.90;;;;;;4859692;29;20602;-72
2021/10/09 03:24:54;;;;;;;18.42;13.23;;;5.90;99.90;;;;;;4858499;29;20223;-73
2021/10/09 03:27:20;;;;;;;17.95;12.85;;;5.90;99.90;;;;;;4858463;29;20215;-75
2021/10/09 03:29:47;;;;;;;17.00;12.07;;;6.30;99.90;;;;;;4859413;29;20659;-75
2021/10/09 03:32:14;;;;;;;17.25;12.63;;;6.40;99.90;;;;;;4858498;29;20228;-75
2021/10/09 03:34:40;;;;;;;17.55;12.82;;;6.20;99.90;;;;;;4858371;29;20595;-74
2021/10/09 03:37:10;;;;;;;19.70;13.77;;;6.10;99.90;;;;;;4858143;29;20223;-75
2021/10/09 03:39:40;;;;;;;16.88;12.05;;;6.30;99.90;;;;;;4858747;29;20215;-74
2021/10/09 03:42:10;;;;;;;15.90;11.38;;;6.20;99.90;;;;;;4858685;29;20212;-74
2021/10/09 03:44:42;;;;;;;16.02;12.45;;;6.10;99.90;;;;;;4858098;29;20231;-74
2021/10/09 03:47:17;;;;;;;15.88;11.48;;;6.00;99.90;;;;;;4858067;29;20207;-75
2021/10/09 03:49:48;;;;;;;15.07;12.18;;;5.90;99.90;;;;;;4858434;29;20259;-74
2021/10/09 03:55:27;;;;;;;19.95;12.50;;;5.80;99.90;;;;;;4892878;29;20229;-75
2021/10/09 03:57:57;;;;;;;15.05;11.38;;;5.70;99.90;;;;;;4895578;29;20206;-75
2021/10/09 04:00:24;;;;;;;17.95;12.25;;;5.70;99.90;;;;;;4896390;29;20210;-75
2021/10/09 04:02:51;;;;;;;16.75;12.55;;;5.70;99.90;;;;;;4896503;29;20675;-75
2021/10/09 04:05:18;;;;;;;14.60;12.30;;;5.70;99.90;;;;;;4896452;29;20229;-75
2021/10/09 04:07:46;;;;;;;20.23;12.50;;;5.60;99.90;;;;;;4895499;29;20229;-75
2021/10/09 04:10:13;;;;;;;17.00;12.85;;;5.60;99.90;;;;;;4896586;29;20213;-74
2021/10/09 04:12:40;;;;;;;16.20;11.90;;;5.60;99.90;;;;;;4896084;29;20218;-75
2021/10/09 04:15:08;;;;;;;17.45;12.32;;;5.60;99.90;;;;;;4896303;29;20230;-75
2021/10/09 04:17:35;;;;;;;15.68;11.07;;;5.60;99.90;;;;;;4895714;29;20211;-75
2021/10/09 04:20:02;;;;;;;15.65;12.02;;;5.50;99.90;;;;;;4896439;29;20207;-74
2021/10/09 04:22:28;;;;;;;13.88;12.45;;;5.50;99.90;;;;;;4895980;29;20214;-75
2021/10/09 04:24:56;;;;;;;16.85;12.85;;;5.50;99.90;;;;;;4893911;29;20223;-75
2021/10/09 04:27:23;;;;;;;17.92;12.15;;;5.50;99.90;;;;;;4895341;29;20206;-75
2021/10/09 04:29:50;;;;;;;18.90;12.52;;;5.50;99.90;;;;;;4895535;29;20224;-74
2021/10/09 04:32:17;;;;;;;17.42;12.43;;;5.40;99.90;;;;;;4893902;29;20210;-75
2021/10/09 04:34:43;;;;;;;17.70;12.43;;;5.40;99.90;;;;;;4893439;29;20308;-75
2021/10/09 04:37:10;;;;;;;14.10;11.73;;;5.40;99.90;;;;;;4894634;29;20206;-75
2021/10/09 04:39:37;;;;;;;15.38;12.68;;;5.40;99.90;;;;;;4894588;29;20214;-73
2021/10/09 04:42:06;;;;;;;18.70;11.77;;;5.40;99.90;;;;;;4895024;29;20210;-75
2021/10/09 04:44:33;;;;;;;15.15;11.38;;;5.40;99.90;;;;;;4894869;29;20313;-73
2021/10/09 04:47:00;;;;;;;17.73;12.35;;;5.40;99.90;;;;;;4895702;29;20210;-75
2021/10/09 04:49:27;;;;;;;16.45;12.27;;;5.40;99.90;;;;;;4895943;29;20281;-75
2021/10/09 04:51:53;;;;;;;15.02;10.90;;;5.40;99.90;;;;;;4896083;29;20221;-75
2021/10/09 04:54:20;;;;;;;14.82;11.40;;;5.40;99.90;;;;;;4895767;29;20234;-75
2021/10/09 04:56:47;;;;;;;13.48;11.57;;;5.30;99.90;;;;;;4895530;29;20213;-75
2021/10/09 04:59:15;;;;;;;15.65;11.60;;;5.30;99.90;;;;;;4896254;29;20206;-75
2021/10/09 05:01:42;;;;;;;15.40;11.70;;;5.30;99.90;;;;;;4895690;29;20694;-75
2021/10/09 05:04:08;;;;;;;20.23;11.88;;;5.30;99.90;;;;;;4896200;29;20227;-75
2021/10/09 05:06:35;;;;;;;14.75;12.10;;;5.20;99.90;;;;;;4895452;29;20207;-74
2021/10/09 05:09:03;;;;;;;18.08;10.90;;;5.20;99.90;;;;;;4896010;29;20684;-75
2021/10/09 05:11:30;;;;;;;15.30;11.48;;;5.20;99.90;;;;;;4895693;29;20206;-75
2021/10/09 05:13:56;;;;;;;13.57;10.75;;;5.20;99.90;;;;;;4895653;29;20233;-75
2021/10/09 05:16:25;;;;;;;16.00;11.98;;;5.20;99.90;;;;;;4895258;29;20697;-75
2021/10/09 05:18:51;;;;;;;16.58;12.10;;;5.20;99.90;;;;;;4896615;29;20206;-73
2021/10/09 05:21:18;;;;;;;16.15;12.15;;;5.20;99.90;;;;;;4899550;29;20221;-75
2021/10/09 05:23:45;;;;;;;13.38;11.80;;;5.20;99.90;;;;;;4899566;29;20206;-75
2021/10/09 05:26:12;;;;;;;15.77;11.80;;;5.20;99.90;;;;;;4899201;29;20214;-75
2021/10/09 05:28:42;;;;;;;15.90;11.13;;;5.20;99.90;;;;;;4899427;29;20225;-75
2021/10/09 05:31:10;;;;;;;14.65;11.27;;;5.20;99.90;;;;;;4899542;29;20206;-75
2021/10/09 05:33:42;;;;;;;14.50;10.77;;;5.20;99.90;;;;;;4899113;29;20234;-75
2021/10/09 05:36:09;;;;;;;15.43;10.75;;;5.20;99.90;;;;;;4899155;29;20227;-75
2021/10/09 05:38:36;;;;;;;15.18;11.93;;;5.20;99.90;;;;;;4899189;29;20211;-75
2021/10/09 05:41:02;;;;;;;13.93;11.27;;;5.20;99.90;;;;;;4899226;29;20218;-75
2021/10/09 05:43:30;;;;;;;16.38;11.40;;;5.20;99.90;;;;;;4898754;29;20210;-74
2021/10/09 05:45:58;;;;;;;16.10;12.18;;;5.20;99.90;;;;;;4898488;29;20227;-75
2021/10/09 05:48:24;;;;;;;15.43;11.60;;;5.20;99.90;;;;;;4899418;29;20307;-73
2021/10/09 05:50:58;;;;;;;16.05;10.80;;;5.20;99.90;;;;;;4899521;29;20206;-75
2021/10/09 05:53:43;;;;;;;10.48;9.23;;;5.20;99.90;;;;;;4898860;29;20647;-75
2021/10/09 05:56:14;;;;;;;15.00;11.20;;;5.30;99.90;;;;;;4898739;29;20216;-75
2021/10/09 05:58:49;;;;;;;15.77;10.45;;;5.20;99.90;;;;;;4899110;29;20297;-73
2021/10/09 06:01:42;;;;;;;14.68;10.40;;;5.20;99.90;;;;;;4898877;29;20301;-75
2021/10/09 06:32:09;;;;;;;16.42;12.45;;;5.70;99.90;;;;;;4886340;29;20206;-73
2021/10/09 06:37:49;;;;;;;15.45;11.57;;;5.90;99.90;;;;;;4888069;29;20326;-74
2021/10/09 06:43:22;;;;;;;16.63;11.45;;;6.10;99.90;;;;;;4888355;29;20213;-75
2021/10/09 06:59:32;;;;;;;18.45;13.65;;;7.70;99.90;;;;;;4887258;29;20210;-75
2021/10/09 07:01:58;;;;;;;15.15;11.00;;;7.90;99.90;;;;;;4886378;29;20263;-75
2021/10/09 07:04:26;;;;;;;15.52;12.05;;;8.20;99.90;;;;;;4887218;29;20229;-74
2021/10/09 07:06:55;;;;;;;16.60;11.43;;;8.50;99.90;;;;;;4886869;29;20671;-75
2021/10/09 07:09:22;;;;;;;13.80;12.30;;;8.70;99.90;;;;;;4885948;29;20203;-75
2021/10/09 07:11:50;;;;;;;16.15;12.82;;;8.90;99.90;;;;;;4887178;29;20215;-75
2021/10/09 07:14:17;;;;;;;14.30;10.95;;;9.10;99.90;;;;;;4887460;29;20219;-75
2021/10/09 07:16:43;;;;;;;15.65;11.45;;;9.20;99.90;;;;;;4887032;29;20210;-75
2021/10/09 07:19:10;;;;;;;16.80;11.93;;;9.40;99.90;;;;;;4885326;29;20567;-75
2021/10/09 07:21:37;;;;;;;13.70;11.10;;;9.70;99.90;;;;;;4877608;29;20207;-75
2021/10/09 07:24:04;;;;;;;14.15;11.15;;;9.90;99.90;;;;;;4881237;29;20568;-75
2021/10/09 07:26:31;;;;;;;15.98;13.10;;;10.10;99.90;;;;;;4885776;29;20202;-75
2021/10/09 07:28:59;;;;;;;15.30;11.52;;;10.20;99.90;;;;;;4885335;29;21827;-75
2021/10/09 07:31:26;;;;;;;17.80;12.65;;;10.40;99.90;;;;;;4887755;29;20203;-75
2021/10/09 07:33:52;;;;;;;15.60;12.35;;;10.50;99.90;;;;;;4884969;29;20246;-75
2021/10/09 07:36:19;;;;;;;17.58;12.60;;;10.70;99.90;;;;;;4884913;29;20199;-75
2021/10/09 07:38:46;;;;;;;16.95;12.50;;;10.90;99.90;;;;;;4886704;29;20581;-75
2021/10/09 07:41:12;;;;;;;15.50;11.90;;;11.00;99.90;;;;;;4886115;29;20206;-75
2021/10/09 07:43:39;;;;;;;17.23;12.30;;;11.20;99.90;;;;;;4884462;29;20203;-75
2021/10/09 07:46:07;;;;;;;13.98;12.10;;;11.50;99.90;;;;;;4886316;29;20222;-75
2021/10/09 07:48:34;;;;;;;14.18;11.43;;;11.60;99.90;;;;;;4889786;29;20209;-75
2021/10/09 07:51:01;;;;;;;14.70;12.05;;;11.80;99.90;;;;;;4887004;29;20206;-75
2021/10/09 07:53:27;;;;;;;15.85;12.50;;;12.00;99.90;;;;;;4885660;29;20227;-75
2021/10/09 07:55:54;;;;;;;14.77;13.18;;;12.20;99.90;;;;;;4885090;29;20591;-75
2021/10/09 07:58:21;;;;;;;16.48;12.95;;;12.30;99.90;;;;;;4886752;29;20210;-75
2021/10/09 08:00:47;;;;;;;16.60;12.15;;;12.40;99.90;;;;;;4885770;29;20206;-75
2021/10/09 08:03:18;;;;;;;14.50;12.65;;;12.60;99.90;;;;;;4893842;29;20207;-76
2021/10/09 08:05:47;;;;;;;15.98;12.57;;;12.80;99.90;;;;;;4896069;29;20251;-76
2021/10/09 08:08:14;;;;;;;15.77;12.50;;;12.90;99.90;;;;;;4896716;29;20717;-76
2021/10/09 08:10:41;;;;;;;14.10;12.07;;;13.20;99.90;;;;;;4896656;29;20482;-76
2021/10/09 08:13:07;;;;;;;16.80;12.40;;;13.30;99.90;;;;;;4896919;29;20296;-75
2021/10/09 08:15:34;;;;;;;13.80;11.10;;;13.40;99.90;;;;;;4896148;29;20501;-76
2021/10/09 08:18:01;;;;;;;16.67;11.53;;;13.60;99.90;;;;;;4896039;29;20467;-76
2021/10/09 08:20:29;;;;;;;15.90;12.70;;;13.70;99.90;;;;;;4896199;29;20471;-75
2021/10/09 08:22:59;;;;;;;15.17;13.23;;;14.00;99.90;;;;;;4896777;29;20221;-75
2021/10/09 08:36:37;;;;;;;20.27;13.53;;;14.50;99.90;;;;;;4871116;29;20541;-75
2021/10/09 08:39:03;;;;;;;13.70;11.60;;;14.70;99.90;;;;;;4896318;29;20459;-75
2021/10/09 08:41:30;;;;;;;13.63;12.20;;;14.70;99.90;;;;;;4895964;29;20930;-76
2021/10/09 08:43:57;;;;;;;14.90;12.70;;;14.70;99.90;;;;;;4896024;29;20465;-75
2021/10/09 08:46:24;;;;;;;17.70;12.83;;;14.70;99.90;;;;;;4895566;29;20469;-76
2021/10/09 08:48:52;;;;;;;14.80;12.27;;;14.70;99.90;;;;;;4896285;29;20469;-75
2021/10/09 08:51:24;;;;;;;14.60;11.10;;;14.80;99.90;;;;;;4895928;29;20482;-75
2021/10/09 08:53:53;;;;;;;15.00;10.47;;;15.00;99.90;;;;;;4895742;29;20501;-76
2021/10/09 08:56:31;;;;;;;17.80;12.23;;;15.10;99.90;;;;;;4895625;29;20474;-75
2021/10/09 08:59:14;;;;;;;12.53;10.97;;;15.20;99.90;;;;;;4895917;29;20836;-76
2021/10/09 09:01:53;;;;;;;17.30;11.23;;;15.30;99.90;;;;;;4895913;29;20470;-75
2021/10/09 09:07:27;;;;;;;16.40;12.33;;;15.30;99.90;;;;;;4895077;29;20962;-76
2021/10/09 09:32:32;;;;;;;14.73;11.57;;;15.70;99.90;;;;;;4895592;29;20538;-75
2021/10/09 09:40:40;;;;;;;16.27;11.60;;;15.60;99.90;;;;;;4890481;29;20453;-76
2021/10/09 09:43:10;;;;;;;16.27;12.13;;;15.90;99.90;;;;;;4895621;29;20470;-76
2021/10/09 09:45:38;;;;;;;12.20;10.77;;;16.20;99.90;;;;;;4895316;29;20510;-76
2021/10/09 09:48:07;;;;;;;12.27;9.60;;;16.50;99.90;;;;;;4895257;29;20557;-76
2021/10/09 09:50:35;;;;;;;11.43;10.23;;;16.70;99.90;;;;;;4895081;29;20466;-77
2021/10/09 09:53:03;;;;;;;10.60;9.50;;;16.80;99.90;;;;;;4904857;23;20495;-73
2021/10/09 09:55:30;;;;;;;11.30;9.90;;;17.00;99.90;;;;;;4876049;29;20551;-72
2021/10/09 09:58:00;;;;;;;12.60;11.30;;;17.10;99.90;;;;;;4875456;29;20467;-73
2021/10/09 10:00:34;;;;;;;14.37;12.23;;;17.30;99.90;;;;;;4876364;29;20475;-72
2021/10/09 10:03:03;;;;;;;16.70;12.00;;;17.20;99.90;;;;;;4876385;29;20495;-73
2021/10/09 10:05:30;;;;;;;14.57;12.30;;;17.40;99.90;;;;;;4877302;29;21011;-72
2021/10/09 10:07:57;;;;;;;14.20;11.33;;;17.50;99.90;;;;;;4878968;29;20467;-72
2021/10/09 10:10:24;;;;;;;12.37;11.07;;;17.40;99.90;;;;;;4879587;29;20480;-72
2021/10/09 10:12:55;;;;;;;13.50;11.83;;;17.70;99.90;;;;;;4880210;29;20492;-73
2021/10/09 10:15:29;;;;;;;14.03;11.70;;;17.70;99.90;;;;;;4879913;29;20848;-72
2021/10/09 10:17:55;;;;;;;12.38;11.10;;;18.00;99.90;;;;;;4878871;29;20879;-73
2021/10/09 10:20:24;;;;;;;11.97;10.70;;;18.20;99.90;;;;;;4879399;29;20698;-72
2021/10/09 10:22:57;;;;;;;12.87;10.40;;;18.40;99.90;;;;;;4879290;29;20474;-72
2021/10/09 10:25:35;;;;;;;12.43;11.13;;;18.50;99.90;;;;;;4879376;29;20518;-73
2021/10/09 10:28:05;;;;;;;13.20;10.50;;;18.70;99.90;;;;;;4879162;29;20473;-72
2021/10/09 10:30:38;;;;;;;12.90;10.67;;;18.80;99.90;;;;;;4879308;29;20463;-72
2021/10/09 10:33:42;;;;;;;14.33;12.40;;;18.80;99.90;;;;;;4879426;29;20964;-72
2021/10/09 10:36:33;;;;;;;12.10;10.80;;;18.90;99.90;;;;;;4878866;29;20864;-72
2021/10/09 10:39:01;;;;;;;14.13;11.30;;;19.00;99.90;;;;;;4879100;29;20471;-72
2021/10/09 10:41:44;;;;;;;10.90;9.80;;;19.20;99.90;;;;;;4879395;29;20527;-72
2021/10/09 10:44:13;;;;;;;14.13;10.80;;;19.40;99.90;;;;;;4879061;29;20483;-72
2021/10/09 10:46:47;;;;;;;11.10;10.00;;;19.30;99.90;;;;;;4878615;29;20471;-72
2021/10/09 10:49:18;;;;;;;10.53;9.57;;;19.40;99.90;;;;;;4879291;29;20467;-72
2021/10/09 10:52:09;;;;;;;11.73;10.57;;;19.50;99.90;;;;;;4878727;29;20467;-71
2021/10/09 10:54:57;;;;;;;12.60;10.03;;;19.30;99.90;;;;;;4878782;29;20499;-72
2021/10/09 10:57:26;;;;;;;14.30;10.50;;;19.40;99.90;;;;;;4879098;29;20892;-72
2021/10/09 10:59:56;;;;;;;11.77;9.73;;;19.70;99.90;;;;;;4879003;29;20479;-73
2021/10/09 11:02:25;;;;;;;12.40;10.03;;;20.00;99.90;;;;;;4878644;29;20576;-72
2021/10/09 11:04:53;;;;;;;13.13;10.07;;;20.20;99.90;;;;;;4878831;29;20517;-72
2021/10/09 11:07:24;;;;;;;10.90;9.47;;;20.40;99.90;;;;;;4878271;29;20476;-72
2021/10/09 11:09:51;;;;;;;11.80;10.00;;;20.50;99.90;;;;;;4878687;29;20475;-73
2021/10/09 11:12:30;;;;;;;11.10;8.93;;;20.70;99.90;;;;;;4878568;29;20472;-73
2021/10/09 11:15:09;;;;;;;11.03;9.47;;;21.00;99.90;;;;;;4878232;29;20526;-73
2021/10/09 11:17:38;;;;;;;10.83;9.60;;;21.30;99.90;;;;;;4877179;29;21006;-73
2021/10/09 11:20:07;;;;;;;10.30;9.27;;;21.50;99.90;;;;;;4878996;29;20498;-72
2021/10/09 11:22:40;;;;;;;9.90;8.93;;;21.70;99.90;;;;;;4878788;29;20478;-71
2021/10/09 11:25:08;;;;;;;11.00;8.87;;;21.80;99.90;;;;;;4878459;29;20487;-71
2021/10/09 11:27:38;;;;;;;10.03;8.50;;;22.20;99.90;;;;;;4888772;29;20933;-70
2021/10/09 11:30:07;;;;;;;10.67;9.00;;;22.50;99.90;;;;;;4897443;29;20466;-71
2021/10/09 11:32:37;;;;;;;9.43;8.50;;;22.50;99.90;;;;;;4896934;29;20470;-71
2021/10/09 11:35:06;;;;;;;10.47;8.87;;;22.80;99.90;;;;;;4896997;29;20501;-71
2021/10/09 11:37:33;;;;;;;10.13;8.43;;;23.00;99.90;;;;;;4896327;29;20849;-70
2021/10/09 11:40:02;;;;;;;9.73;8.07;;;22.90;99.90;;;;;;4897110;29;20477;-72
2021/10/09 11:42:31;;;;;;;12.23;9.10;;;22.90;99.90;;;;;;4896839;29;20499;-71
2021/10/09 11:45:14;;;;;;;8.93;7.10;;;23.00;99.90;;;;;;4896711;29;20561;-71
2021/10/09 11:56:14;;;;;;;12.03;8.07;;;23.50;99.90;;;;;;4854034;29;20498;-71
2021/10/09 11:58:54;;;;;;;9.60;7.50;;;23.60;99.90;;;;;;4877487;29;20468;-72
2021/10/09 12:01:43;;;;;;;8.53;7.73;;;23.40;99.90;;;;;;4877835;29;20952;-72
2021/10/09 12:04:18;;;;;;;13.50;7.50;;;23.50;99.90;;;;;;4878010;29;20486;-72
2021/10/09 12:06:47;;;;;;;8.50;7.60;;;23.70;99.90;;;;;;4883823;29;20998;-71
2021/10/09 12:09:15;;;;;;;8.47;7.57;;;23.80;99.90;;;;;;4896408;29;20474;-71
2021/10/09 12:11:43;;;;;;;9.83;8.03;;;23.80;99.50;;;;;;4896264;29;20463;-71
2021/10/09 12:14:11;;;;;;;10.47;8.03;;;23.30;98.60;;;;;;4896265;29;20493;-72
2021/10/09 12:16:39;;;;;;;13.30;7.27;;;23.20;99.20;;;;;;4895649;29;21000;-71
2021/10/09 12:19:09;;;;;;;8.87;7.67;;;23.40;99.50;;;;;;4896415;29;20467;-72
2021/10/09 12:21:37;;;;;;;7.00;6.30;;;23.40;99.40;;;;;;4895850;29;20478;-71
2021/10/09 12:24:15;;;;;;;11.27;7.67;;;23.40;99.60;;;;;;4896156;29;20474;-70
2021/10/09 12:26:42;;;;;;;8.03;7.23;;;23.30;99.50;;;;;;4895455;29;20466;-71
2021/10/09 12:29:12;;;;;;;8.20;7.43;;;23.30;99.80;;;;;;4895761;29;20470;-71
2021/10/09 12:31:43;;;;;;;10.70;7.70;;;23.20;99.90;;;;;;4895769;29;20473;-71
2021/10/09 12:34:32;;;;;;;8.60;7.70;;;23.00;99.90;;;;;;4895901;29;20577;-72
2021/10/09 12:37:22;;;;;;;9.63;8.73;;;22.80;99.90;;;;;;4895733;29;20981;-71
2021/10/09 12:40:04;;;;;;;10.13;8.53;;;22.60;99.70;;;;;;4895750;29;20528;-71
2021/10/09 12:42:31;;;;;;;12.23;8.63;;;22.30;99.90;;;;;;4896005;29;20482;-71
2021/10/09 12:44:57;;;;;;;9.63;8.20;;;21.80;99.90;;;;;;4895893;29;20490;-72
2021/10/09 12:47:24;;;;;;;11.00;8.33;;;21.70;99.90;;;;;;4894527;29;20466;-71
2021/10/09 12:49:52;;;;;;;8.33;7.50;;;21.60;99.90;;;;;;4894598;29;20467;-71
2021/10/09 12:52:19;;;;;;;10.87;9.13;;;21.50;99.90;;;;;;4895608;29;20479;-71
2021/10/09 12:54:45;;;;;;;9.93;8.53;;;21.40;99.90;;;;;;4895681;29;20486;-71
2021/10/09 12:57:12;;;;;;;9.50;8.47;;;21.30;99.90;;;;;;4895507;29;20979;-71
2021/10/09 12:59:39;;;;;;;8.53;7.70;;;21.20;99.90;;;;;;4896101;29;20471;-71
2021/10/09 13:02:06;;;;;;;10.80;8.67;;;21.20;99.90;;;;;;4896500;29;20466;-71
2021/10/09 13:04:34;;;;;;;9.20;8.30;;;21.20;99.90;;;;;;4895732;29;20913;-71
2021/10/09 13:07:02;;;;;;;8.50;7.70;;;21.00;99.90;;;;;;4895497;29;20498;-72
2021/10/09 13:09:29;;;;;;;9.13;8.23;;;20.80;99.90;;;;;;4895852;29;20510;-72
2021/10/09 13:11:57;;;;;;;8.93;7.80;;;20.70;99.90;;;;;;4895676;29;20479;-72
2021/10/09 13:14:24;;;;;;;8.80;7.50;;;20.50;99.90;;;;;;4895689;29;20885;-72
2021/10/09 13:16:51;;;;;;;9.40;8.50;;;20.50;99.90;;;;;;4895146;29;20490;-72
2021/10/09 13:19:18;;;;;;;10.53;8.53;;;20.50;99.90;;;;;;4895836;29;20471;-71
2021/10/09 13:21:45;;;;;;;9.90;8.17;;;20.50;99.90;;;;;;4895525;29;20821;-71
2021/10/09 13:24:13;;;;;;;10.60;8.70;;;20.40;99.90;;;;;;4895598;29;20486;-72
2021/10/09 13:26:40;;;;;;;8.57;7.67;;;20.40;99.90;;;;;;4895049;29;20814;-71
2021/10/09 13:29:07;;;;;;;9.97;8.63;;;20.30;99.90;;;;;;4896064;29;20478;-71
2021/10/09 13:31:34;;;;;;;10.20;8.30;;;20.10;99.90;;;;;;4895791;29;20497;-72
2021/10/09 13:34:01;;;;;;;10.33;8.03;;;20.10;99.90;;;;;;4895686;29;20463;-72
2021/10/09 13:36:27;;;;;;;9.77;8.20;;;20.20;99.90;;;;;;4895119;29;20554;-71
2021/10/09 13:38:54;;;;;;;12.17;8.60;;;20.20;99.90;;;;;;4895587;29;20474;-72
2021/10/09 13:41:22;;;;;;;9.80;7.80;;;20.10;99.90;;;;;;4898693;29;20564;-72
2021/10/09 13:43:49;;;;;;;11.80;8.50;;;20.00;99.90;;;;;;4899036;29;20548;-72
2021/10/09 13:46:19;;;;;;;12.80;8.37;;;19.90;99.90;;;;;;4898768;29;20459;-71
2021/10/09 13:48:46;;;;;;;7.93;7.13;;;19.90;99.90;;;;;;4899041;29;20485;-71
2021/10/09 13:51:13;;;;;;;10.13;7.90;;;19.90;99.90;;;;;;4899252;29;20470;-71
2021/10/09 13:53:40;;;;;;;8.80;7.90;;;19.90;99.90;;;;;;4898655;29;21039;-71
2021/10/09 13:56:07;;;;;;;9.00;7.27;;;19.90;99.90;;;;;;4898592;29;20502;-71
2021/10/09 13:58:35;;;;;;;10.17;8.13;;;19.90;99.90;;;;;;4898833;29;20950;-71
2021/10/09 14:01:02;;;;;;;10.50;7.87;;;19.90;99.90;;;;;;4899067;29;20470;-71
2021/10/09 14:03:31;;;;;;;9.50;8.23;;;19.70;99.90;;;;;;4898909;29;20473;-70
2021/10/09 14:05:58;;;;;;;9.37;8.43;;;19.70;99.90;;;;;;4898273;29;20487;-71
2021/10/09 14:08:25;;;;;;;11.07;9.40;;;19.60;99.90;;;;;;4898647;29;20466;-72
2021/10/09 14:10:52;;;;;;;11.07;8.40;;;19.40;99.90;;;;;;4898592;29;21184;-72
2021/10/09 14:13:19;;;;;;;10.40;9.17;;;19.30;99.90;;;;;;4898656;29;20473;-71
2021/10/09 14:15:47;;;;;;;9.33;8.43;;;19.20;99.90;;;;;;4897706;29;20497;-71
2021/10/09 14:18:16;;;;;;;8.90;8.10;;;19.20;99.90;;;;;;4898630;29;20841;-71
2021/10/09 14:20:43;;;;;;;14.60;7.57;;;19.30;99.90;;;;;;4898310;29;21029;-71
2021/10/09 14:23:10;;;;;;;8.90;7.97;;;19.40;99.90;;;;;;4895929;29;20466;-71
2021/10/09 14:25:36;;;;;;;9.93;8.07;;;19.30;99.90;;;;;;4894108;29;20861;-70
2021/10/09 14:28:04;;;;;;;7.77;6.97;;;19.20;99.90;;;;;;4894447;29;20458;-70
2021/10/09 14:30:31;;;;;;;9.70;7.30;;;19.20;99.90;;;;;;4894374;29;20477;-71
2021/10/09 14:33:00;;;;;;;11.23;7.70;;;19.10;99.90;;;;;;4894574;29;20474;-70
2021/10/09 14:35:26;;;;;;;10.50;8.30;;;19.10;99.90;;;;;;4893748;29;20861;-71